LSZS/SMV METAR and TAF weather

Enter ICAO airport designator
Station Type Date Time Source
LSZS METAR 2020/01/21 15:20 UTC NOAA

LSZS 211520Z 00000KT CAVOK M02/M13 Q1035 RMK R TL170


Station Type Date Time Source
LSZS Decoded METAR 2020/01/21 15:20 UTC NOAA

Station name not available
Jan 21, 2020 - 10:20 AM EST / 2020.01.21 1520 UTC
Wind: Calm:0
Visibility: greater than 7 mile(s):0
Temperature: 28 F (-2 C)
Dew Point: 8 F (-13 C)
Relative Humidity: 42%
Pressure (altimeter): 30.56 in. Hg (1035 hPa)
ob: LSZS 211520Z 00000KT CAVOK M02/M13 Q1035 RMK R TL170
cycle: 15

Station Type Date Time Source
LSZS TAF 2014/12/22 20:03 UTC NOAA

TAF
AMD LSZS 222054Z 2220/2224 CNL

Example: see airport list